createdAt,value
2023-01-29T00:00:22.481Z,83.91
2023-01-29T00:02:51.201Z,83.84
2023-01-29T00:05:28.532Z,83.85
2023-01-29T00:07:59.173Z,83.84
2023-01-29T00:10:28.165Z,83.91
2023-01-29T00:12:56.754Z,83.92
2023-01-29T00:15:32.461Z,84.21
2023-01-29T00:18:01.568Z,84.12
2023-01-29T00:20:31.270Z,84.15
2023-01-29T00:23:09.136Z,84.16
2023-01-29T00:25:37.797Z,84.24
2023-01-29T00:28:06.859Z,84.19
2023-01-29T00:30:35.689Z,84.30
2023-01-29T00:33:05.016Z,84.41
2023-01-29T00:35:34.515Z,84.52
2023-01-29T00:38:03.160Z,84.43
2023-01-29T00:40:55.556Z,84.40
2023-01-29T00:43:42.000Z,84.35
2023-01-29T00:46:11.304Z,84.42
2023-01-29T00:48:39.990Z,84.39
2023-01-29T00:51:08.594Z,84.25
2023-01-29T00:53:37.223Z,84.21
2023-01-29T00:56:08.437Z,84.28
2023-01-29T00:58:37.056Z,84.24
2023-01-29T01:01:05.960Z,84.27
2023-01-29T01:03:35.475Z,83.92
2023-01-29T01:06:05.925Z,84.14
2023-01-29T01:08:51.956Z,84.09
2023-01-29T01:11:24.618Z,84.06
2023-01-29T01:13:53.154Z,84.01
2023-01-29T01:16:21.845Z,83.98
2023-01-29T01:19:09.909Z,83.96
2023-01-29T01:21:38.552Z,84.17
2023-01-29T01:24:07.787Z,84.09
2023-01-29T01:26:37.913Z,84.04
2023-01-29T01:29:06.945Z,84.01
2023-01-29T01:31:35.715Z,83.91
2023-01-29T01:34:04.501Z,84.03
2023-01-29T01:36:33.228Z,84.02
2023-01-29T01:39:02.251Z,84.01
2023-01-29T01:41:31.874Z,83.94
2023-01-29T01:44:04.453Z,84.03
2023-01-29T01:46:36.005Z,83.92
2023-01-29T01:49:11.363Z,84.04
2023-01-29T01:51:47.686Z,84.05
2023-01-29T01:54:24.360Z,83.90
2023-01-29T01:57:04.966Z,83.89
2023-01-29T01:59:37.202Z,83.91
2023-01-29T02:02:25.927Z,83.84
2023-01-29T02:05:12.441Z,84.01
2023-01-29T02:08:03.244Z,84.02
2023-01-29T02:10:39.294Z,84.10
2023-01-29T02:13:08.908Z,84.19
2023-01-29T02:15:41.951Z,84.36
2023-01-29T02:18:10.681Z,84.35
2023-01-29T02:20:43.681Z,84.62
2023-01-29T02:24:02.745Z,84.59
2023-01-29T02:26:51.347Z,84.39
2023-01-29T02:29:35.435Z,84.35
2023-01-29T02:32:18.684Z,84.40
2023-01-29T02:35:19.366Z,84.42
2023-01-29T02:37:58.595Z,84.12
2023-01-29T02:40:37.098Z,84.22
2023-01-29T02:43:23.641Z,84.34
2023-01-29T02:46:04.274Z,84.30
2023-01-29T02:48:44.745Z,84.39
2023-01-29T02:51:24.724Z,84.46
2023-01-29T02:54:02.931Z,84.73
2023-01-29T02:56:40.414Z,84.61
2023-01-29T02:59:15.818Z,84.60
2023-01-29T03:01:53.330Z,84.76
2023-01-29T03:04:29.569Z,84.79
2023-01-29T03:07:05.015Z,84.71
2023-01-29T03:09:40.777Z,84.63
2023-01-29T03:12:29.284Z,84.67
2023-01-29T03:15:14.148Z,84.64
2023-01-29T03:17:55.458Z,84.72
2023-01-29T03:20:32.242Z,84.57
2023-01-29T03:23:18.101Z,84.64
2023-01-29T03:26:04.539Z,84.68
2023-01-29T03:28:52.101Z,84.66
2023-01-29T03:31:38.864Z,84.73
2023-01-29T03:34:16.613Z,84.68
2023-01-29T03:36:55.177Z,84.86
2023-01-29T03:39:29.226Z,84.91
2023-01-29T03:42:06.583Z,84.95
2023-01-29T03:44:44.478Z,85.01
2023-01-29T03:47:29.448Z,84.82
2023-01-29T03:50:07.781Z,84.94
2023-01-29T03:52:46.641Z,85.06
2023-01-29T03:55:21.724Z,85.15
2023-01-29T03:58:02.329Z,85.06
2023-01-29T04:00:39.227Z,85.25
2023-01-29T04:03:17.111Z,85.17
2023-01-29T04:05:58.456Z,85.34
2023-01-29T04:08:37.490Z,85.46
2023-01-29T04:11:15.329Z,85.36
2023-01-29T04:13:46.310Z,85.57
2023-01-29T04:16:24.054Z,85.40
2023-01-29T04:19:16.365Z,85.45
2023-01-29T04:21:50.445Z,85.41
2023-01-29T04:24:19.646Z,85.49
2023-01-29T04:27:14.254Z,85.54
2023-01-29T04:30:05.812Z,85.43
2023-01-29T04:33:06.479Z,85.49
2023-01-29T04:35:55.530Z,85.52
2023-01-29T04:38:42.148Z,85.52
2023-01-29T04:41:23.283Z,85.77
2023-01-29T04:44:07.964Z,85.67
2023-01-29T04:46:50.782Z,85.78
2023-01-29T04:49:34.440Z,85.85
2023-01-29T04:52:14.270Z,86.02
2023-01-29T04:55:01.530Z,86.26
2023-01-29T04:57:46.298Z,86.27
2023-01-29T05:00:22.026Z,86.47
2023-01-29T05:02:52.237Z,86.64
2023-01-29T05:05:22.419Z,86.85
2023-01-29T05:07:51.761Z,86.67
2023-01-29T05:10:26.230Z,86.79
2023-01-29T05:13:01.912Z,86.97
2023-01-29T05:15:42.117Z,86.96
2023-01-29T05:18:11.015Z,87.10
2023-01-29T05:20:44.091Z,87.22
2023-01-29T05:23:18.632Z,87.18
2023-01-29T05:25:49.233Z,87.24
2023-01-29T05:28:17.433Z,87.25
2023-01-29T05:30:49.000Z,87.39
2023-01-29T05:33:22.615Z,87.32
2023-01-29T05:35:51.852Z,87.32
2023-01-29T05:38:21.669Z,87.25
2023-01-29T05:40:52.107Z,87.31
2023-01-29T05:43:22.977Z,87.29
2023-01-29T05:45:55.999Z,87.25
2023-01-29T05:48:25.627Z,87.41
2023-01-29T05:50:54.229Z,87.09
2023-01-29T05:53:23.144Z,87.35
2023-01-29T05:55:53.158Z,87.25
2023-01-29T05:58:21.893Z,87.42
2023-01-29T06:00:50.908Z,87.31
2023-01-29T06:03:19.537Z,87.35
2023-01-29T06:05:48.168Z,87.44
2023-01-29T06:08:16.707Z,87.63
2023-01-29T06:10:45.269Z,87.76
2023-01-29T06:13:15.244Z,87.85
2023-01-29T06:15:43.825Z,87.87
2023-01-29T06:18:12.388Z,88.00
2023-01-29T06:20:41.153Z,88.06
2023-01-29T06:23:09.769Z,87.98
2023-01-29T06:25:38.348Z,88.05
2023-01-29T06:28:06.950Z,88.05
2023-01-29T06:30:37.032Z,87.88
2023-01-29T06:33:05.771Z,87.94
2023-01-29T06:35:38.227Z,87.89
2023-01-29T06:38:06.864Z,87.98
2023-01-29T06:40:35.747Z,87.81
2023-01-29T06:43:05.419Z,87.65
2023-01-29T06:45:37.224Z,87.77
2023-01-29T06:48:27.350Z,87.76
2023-01-29T06:50:56.213Z,87.65
2023-01-29T06:53:25.574Z,87.65
2023-01-29T06:55:55.816Z,87.44
2023-01-29T06:58:24.673Z,87.45
2023-01-29T07:00:55.183Z,87.48
2023-01-29T07:03:23.807Z,87.38
2023-01-29T07:05:53.434Z,87.25
2023-01-29T07:08:22.848Z,87.22
2023-01-29T07:10:53.092Z,87.05
2023-01-29T07:13:21.792Z,87.06
2023-01-29T07:15:50.434Z,86.92
2023-01-29T07:18:24.904Z,86.97
2023-01-29T07:20:56.830Z,86.91
2023-01-29T07:23:28.636Z,86.79
2023-01-29T07:25:57.608Z,86.76
2023-01-29T07:28:26.261Z,86.69
2023-01-29T07:31:00.120Z,86.66
2023-01-29T07:33:31.805Z,86.59
2023-01-29T07:36:01.540Z,86.46
2023-01-29T07:38:31.183Z,86.40
2023-01-29T07:41:00.927Z,86.34
2023-01-29T07:43:31.174Z,86.39
2023-01-29T07:46:04.376Z,86.46
2023-01-29T07:48:37.688Z,86.34
2023-01-29T07:51:07.178Z,86.40
2023-01-29T07:53:35.933Z,86.23
2023-01-29T07:56:04.594Z,86.10
2023-01-29T07:58:35.587Z,86.13
2023-01-29T08:01:08.260Z,86.14
2023-01-29T08:03:38.817Z,86.00
2023-01-29T08:06:08.851Z,85.89
2023-01-29T08:08:37.591Z,85.58
2023-01-29T08:11:06.813Z,85.65
2023-01-29T08:13:35.624Z,85.61
2023-01-29T08:16:07.370Z,85.24
2023-01-29T08:18:42.574Z,85.35
2023-01-29T08:21:13.085Z,85.25
2023-01-29T08:23:42.483Z,85.09
2023-01-29T08:26:11.045Z,84.94
2023-01-29T08:28:39.868Z,84.91
2023-01-29T08:31:15.707Z,84.93
2023-01-29T08:33:45.670Z,84.82
2023-01-29T08:36:15.124Z,84.76
2023-01-29T08:38:43.740Z,84.69
2023-01-29T08:41:12.408Z,84.66
2023-01-29T08:43:41.060Z,84.61
2023-01-29T08:46:10.551Z,84.57
2023-01-29T08:48:39.456Z,84.41
2023-01-29T08:51:10.443Z,84.36
2023-01-29T08:53:39.110Z,84.21
2023-01-29T08:56:08.514Z,84.21
2023-01-29T08:58:37.197Z,84.30
2023-01-29T09:01:10.727Z,84.26
2023-01-29T09:03:43.386Z,84.21
2023-01-29T09:06:16.025Z,84.23
2023-01-29T09:08:44.773Z,84.26
2023-01-29T09:11:13.409Z,84.37
2023-01-29T09:13:42.078Z,84.01
2023-01-29T09:16:11.439Z,83.94
2023-01-29T09:18:40.312Z,83.92
2023-01-29T09:21:09.278Z,83.77
2023-01-29T09:23:39.314Z,83.83
2023-01-29T09:26:09.220Z,83.65
2023-01-29T09:28:38.666Z,83.17
2023-01-29T09:31:10.164Z,83.25
2023-01-29T09:33:38.752Z,83.20
2023-01-29T09:36:08.967Z,83.01
2023-01-29T09:38:39.000Z,83.06
2023-01-29T09:41:25.625Z,83.12
2023-01-29T09:44:01.604Z,82.71
2023-01-29T09:46:40.060Z,82.55
2023-01-29T09:49:19.123Z,82.27
2023-01-29T09:52:07.639Z,82.40
2023-01-29T09:54:57.136Z,82.56
2023-01-29T09:57:58.835Z,82.62
2023-01-29T10:00:36.668Z,82.48
2023-01-29T10:03:37.780Z,82.56
2023-01-29T10:06:43.308Z,82.62
2023-01-29T10:09:49.044Z,82.69
2023-01-29T10:12:36.639Z,82.67
2023-01-29T10:15:22.449Z,82.85
2023-01-29T10:18:11.346Z,82.68
2023-01-29T10:21:01.109Z,82.48
2023-01-29T10:23:35.025Z,82.76
2023-01-29T10:26:05.397Z,82.60
2023-01-29T10:28:42.790Z,82.51
2023-01-29T10:31:21.063Z,82.44
2023-01-29T10:34:02.005Z,82.56
2023-01-29T10:36:39.763Z,82.59
2023-01-29T10:39:18.943Z,82.37
2023-01-29T10:42:16.605Z,82.40
2023-01-29T10:45:07.111Z,82.38
2023-01-29T10:48:08.731Z,82.04
2023-01-29T10:50:50.169Z,82.02
2023-01-29T10:53:35.847Z,81.88
2023-01-29T10:56:23.601Z,81.98
2023-01-29T10:59:02.525Z,81.88
2023-01-29T11:01:31.197Z,81.82
2023-01-29T11:04:06.440Z,81.77
2023-01-29T11:06:37.443Z,81.80
2023-01-29T11:09:14.054Z,81.85
2023-01-29T11:11:49.053Z,81.85
2023-01-29T11:14:26.471Z,82.22
2023-01-29T11:17:00.605Z,82.16
2023-01-29T11:20:02.340Z,82.22
2023-01-29T11:22:37.011Z,82.21
2023-01-29T11:25:54.787Z,82.08
2023-01-29T11:28:45.630Z,82.00
2023-01-29T11:31:24.805Z,82.16
2023-01-29T11:34:07.214Z,82.09
2023-01-29T11:36:39.375Z,81.95
2023-01-29T11:39:27.603Z,81.80
2023-01-29T11:42:04.000Z,81.74
2023-01-29T11:44:44.703Z,81.74
2023-01-29T11:47:24.184Z,81.60
2023-01-29T11:49:58.479Z,81.72
2023-01-29T11:52:40.928Z,81.72
2023-01-29T11:55:20.082Z,81.60
2023-01-29T11:57:55.461Z,81.58
2023-01-29T12:00:29.835Z,81.51
2023-01-29T12:03:08.796Z,81.52
2023-01-29T12:05:37.798Z,81.60
2023-01-29T12:08:24.179Z,81.70
2023-01-29T12:11:14.052Z,81.56
2023-01-29T12:13:47.219Z,81.53
2023-01-29T12:16:25.305Z,81.71
2023-01-29T12:19:07.728Z,81.80
2023-01-29T12:21:49.075Z,81.76
2023-01-29T12:24:37.860Z,81.79
2023-01-29T12:27:15.971Z,81.55
2023-01-29T12:29:53.295Z,81.76
2023-01-29T12:32:37.043Z,81.92
2023-01-29T12:35:18.904Z,81.86
2023-01-29T12:37:57.648Z,81.93
2023-01-29T12:40:32.799Z,81.93
2023-01-29T12:43:08.462Z,81.85
2023-01-29T12:45:42.865Z,81.82
2023-01-29T12:48:17.620Z,81.87
2023-01-29T12:50:50.473Z,81.92
2023-01-29T12:53:28.883Z,82.01
2023-01-29T12:56:04.420Z,81.95
2023-01-29T12:58:41.160Z,81.93
2023-01-29T13:01:18.308Z,82.09
2023-01-29T13:03:56.080Z,81.93
2023-01-29T13:06:35.478Z,81.95
2023-01-29T13:09:09.633Z,82.09
2023-01-29T13:11:46.913Z,81.91
2023-01-29T13:14:23.841Z,82.07
2023-01-29T13:17:03.243Z,82.11
2023-01-29T13:19:40.133Z,82.07
2023-01-29T13:22:23.729Z,82.00
2023-01-29T13:25:04.169Z,82.03
2023-01-29T13:27:38.080Z,81.86
2023-01-29T13:30:11.423Z,81.95
2023-01-29T13:32:40.132Z,81.75
2023-01-29T13:35:17.410Z,81.80
2023-01-29T13:37:53.900Z,81.74
2023-01-29T13:40:29.015Z,81.85
2023-01-29T13:43:00.395Z,81.95
2023-01-29T13:45:37.524Z,82.15
2023-01-29T13:48:24.958Z,82.36
2023-01-29T13:50:57.765Z,82.43
2023-01-29T13:53:34.696Z,82.43
2023-01-29T13:56:42.952Z,82.61
2023-01-29T13:59:25.448Z,82.65
2023-01-29T14:02:19.871Z,82.82
2023-01-29T14:04:48.883Z,82.73
2023-01-29T14:07:52.156Z,82.81
2023-01-29T14:10:24.825Z,82.79
2023-01-29T14:12:55.704Z,82.79
2023-01-29T14:15:35.849Z,82.75
2023-01-29T14:18:27.399Z,82.81
2023-01-29T14:21:06.023Z,82.77
2023-01-29T14:23:46.223Z,82.94
2023-01-29T14:26:29.923Z,82.99
2023-01-29T14:29:06.136Z,83.09
2023-01-29T14:31:50.565Z,83.07
2023-01-29T14:34:29.188Z,83.13
2023-01-29T14:37:02.464Z,83.08
2023-01-29T14:39:38.809Z,83.15
2023-01-29T14:42:25.050Z,83.19
2023-01-29T14:45:11.614Z,83.22
2023-01-29T14:48:05.509Z,83.30
2023-01-29T14:50:49.402Z,83.13
2023-01-29T14:53:41.867Z,83.17
2023-01-29T14:56:18.293Z,83.27
2023-01-29T14:58:52.329Z,83.53
2023-01-29T15:01:25.056Z,83.52
2023-01-29T15:03:59.814Z,83.53
2023-01-29T15:06:37.000Z,83.64
2023-01-29T15:09:16.624Z,83.69
2023-01-29T15:11:57.592Z,83.70
2023-01-29T15:14:34.831Z,83.87
2023-01-29T15:17:24.981Z,84.04
2023-01-29T15:19:53.662Z,84.11
2023-01-29T15:22:26.097Z,84.07
2023-01-29T15:25:08.417Z,84.21
2023-01-29T15:27:37.247Z,84.29
2023-01-29T15:30:09.601Z,84.33
2023-01-29T15:32:41.050Z,84.48
2023-01-29T15:35:16.931Z,84.57
2023-01-29T15:38:00.203Z,84.61
2023-01-29T15:40:29.025Z,84.74
2023-01-29T15:42:57.716Z,84.69
2023-01-29T15:45:32.208Z,84.69
2023-01-29T15:48:09.671Z,84.95
2023-01-29T15:50:43.463Z,84.99
2023-01-29T15:53:19.305Z,85.02
2023-01-29T15:55:51.677Z,84.99
2023-01-29T15:58:31.713Z,85.02
2023-01-29T16:01:03.307Z,84.92
2023-01-29T16:03:35.619Z,84.88
2023-01-29T16:06:07.069Z,85.02
2023-01-29T16:08:37.188Z,85.14
2023-01-29T16:11:08.885Z,85.01
2023-01-29T16:13:44.265Z,85.05
2023-01-29T16:16:24.954Z,85.11
2023-01-29T16:19:00.340Z,85.05
2023-01-29T16:21:36.808Z,84.96
2023-01-29T16:24:11.935Z,85.14
2023-01-29T16:26:45.982Z,85.11
2023-01-29T16:29:18.203Z,85.11
2023-01-29T16:31:51.617Z,85.07
2023-01-29T16:34:31.742Z,85.01
2023-01-29T16:37:03.981Z,85.13
2023-01-29T16:39:39.579Z,85.15
2023-01-29T16:42:30.502Z,85.20
2023-01-29T16:45:02.816Z,85.43
2023-01-29T16:47:46.041Z,85.56
2023-01-29T16:50:35.923Z,85.52
2023-01-29T16:53:14.270Z,85.44
2023-01-29T16:55:49.424Z,85.85
2023-01-29T16:58:22.850Z,85.84
2023-01-29T17:00:57.504Z,85.80
2023-01-29T17:03:31.671Z,85.96
2023-01-29T17:06:12.933Z,85.87
2023-01-29T17:08:45.508Z,85.87
2023-01-29T17:11:31.753Z,85.83
2023-01-29T17:14:01.640Z,85.87
2023-01-29T17:16:33.345Z,85.82
2023-01-29T17:19:12.530Z,85.78
2023-01-29T17:21:41.203Z,85.91
2023-01-29T17:24:10.871Z,85.90
2023-01-29T17:26:40.445Z,85.85
2023-01-29T17:29:20.156Z,85.86
2023-01-29T17:31:52.224Z,86.02
2023-01-29T17:34:25.537Z,85.97
2023-01-29T17:36:54.378Z,86.12
2023-01-29T17:39:25.698Z,85.98
2023-01-29T17:41:56.728Z,86.08
2023-01-29T17:44:27.190Z,86.14
2023-01-29T17:46:57.836Z,86.23
2023-01-29T17:49:32.320Z,86.19
2023-01-29T17:52:01.373Z,86.25
2023-01-29T17:54:30.007Z,86.25
2023-01-29T17:57:01.443Z,86.18
2023-01-29T17:59:33.516Z,86.36
2023-01-29T18:02:02.675Z,86.38
2023-01-29T18:04:33.023Z,86.30
2023-01-29T18:07:01.664Z,86.21
2023-01-29T18:09:30.294Z,86.36
2023-01-29T18:11:58.945Z,86.38
2023-01-29T18:14:27.607Z,86.49
2023-01-29T18:16:57.359Z,86.52
2023-01-29T18:19:28.307Z,86.51
2023-01-29T18:21:58.553Z,86.55
2023-01-29T18:24:27.356Z,86.66
2023-01-29T18:26:56.102Z,86.58
2023-01-29T18:29:29.598Z,86.63
2023-01-29T18:31:58.631Z,86.49
2023-01-29T18:34:27.458Z,86.53
2023-01-29T18:36:57.517Z,86.56
2023-01-29T18:39:26.196Z,86.52
2023-01-29T18:41:54.760Z,86.60
2023-01-29T18:44:23.448Z,86.59
2023-01-29T18:46:52.205Z,86.68
2023-01-29T18:49:20.972Z,86.73
2023-01-29T18:51:49.702Z,86.76
2023-01-29T18:54:21.584Z,86.88
2023-01-29T18:57:13.843Z,86.84
2023-01-29T18:59:39.854Z,86.87
2023-01-29T19:02:08.833Z,86.95
2023-01-29T19:04:37.403Z,87.01
2023-01-29T19:07:06.022Z,87.08
2023-01-29T19:09:36.186Z,87.12
2023-01-29T19:12:05.694Z,87.07
2023-01-29T19:14:34.782Z,87.11
2023-01-29T19:17:04.663Z,87.01
2023-01-29T19:19:33.424Z,87.16
2023-01-29T19:22:02.315Z,87.24
2023-01-29T19:24:36.267Z,87.15
2023-01-29T19:27:07.141Z,87.04
2023-01-29T19:29:35.880Z,87.08
2023-01-29T19:32:04.676Z,87.11
2023-01-29T19:34:33.303Z,87.12
2023-01-29T19:37:01.898Z,87.14
2023-01-29T19:39:33.810Z,87.12
2023-01-29T19:42:02.555Z,87.09
2023-01-29T19:44:32.636Z,87.03
2023-01-29T19:47:01.884Z,86.97
2023-01-29T19:49:31.241Z,86.99
2023-01-29T19:52:01.086Z,86.84
2023-01-29T19:54:30.323Z,86.90
2023-01-29T19:56:59.022Z,86.84
2023-01-29T19:59:27.672Z,86.87
2023-01-29T20:01:57.651Z,86.84
2023-01-29T20:04:26.813Z,86.92
2023-01-29T20:06:55.418Z,86.88
2023-01-29T20:09:24.033Z,86.83
2023-01-29T20:11:52.619Z,86.89
2023-01-29T20:14:21.398Z,86.85
2023-01-29T20:16:50.110Z,86.70
2023-01-29T20:19:21.163Z,86.88
2023-01-29T20:21:50.039Z,86.81
2023-01-29T20:24:19.088Z,86.83
2023-01-29T20:26:50.857Z,86.82
2023-01-29T20:29:19.991Z,86.78
2023-01-29T20:31:49.097Z,86.84
2023-01-29T20:34:19.390Z,86.90
2023-01-29T20:36:48.076Z,86.62
2023-01-29T20:39:16.775Z,86.74
2023-01-29T20:41:45.515Z,86.70
2023-01-29T20:44:14.500Z,86.54
2023-01-29T20:46:43.116Z,86.63
2023-01-29T20:49:12.414Z,86.49
2023-01-29T20:51:42.423Z,86.44
2023-01-29T20:54:12.612Z,86.30
2023-01-29T20:56:43.092Z,86.19
2023-01-29T20:59:13.914Z,86.31
2023-01-29T21:01:43.693Z,86.29
2023-01-29T21:04:12.351Z,86.26
2023-01-29T21:06:42.341Z,86.23
2023-01-29T21:09:10.994Z,86.24
2023-01-29T21:11:39.614Z,86.19
2023-01-29T21:14:08.368Z,86.18
2023-01-29T21:16:37.106Z,86.27
2023-01-29T21:19:05.734Z,86.16
2023-01-29T21:21:34.774Z,86.20
2023-01-29T21:24:05.397Z,86.13
2023-01-29T21:26:34.726Z,86.17
2023-01-29T21:29:06.431Z,86.16
2023-01-29T21:31:35.411Z,86.13
2023-01-29T21:34:06.048Z,86.13
2023-01-29T21:36:36.006Z,86.02
2023-01-29T21:39:17.597Z,86.16
2023-01-29T21:42:05.154Z,86.01
2023-01-29T21:44:34.220Z,86.12
2023-01-29T21:47:12.289Z,86.18
2023-01-29T21:49:42.780Z,86.04
2023-01-29T21:52:14.059Z,86.11
2023-01-29T21:54:46.967Z,86.08
2023-01-29T21:57:17.188Z,86.04
2023-01-29T21:59:47.171Z,86.13
2023-01-29T22:02:23.921Z,86.03
2023-01-29T22:05:08.686Z,85.98
2023-01-29T22:07:45.947Z,85.86
2023-01-29T22:10:17.189Z,86.04
2023-01-29T22:12:46.202Z,86.15
2023-01-29T22:15:15.746Z,86.23
2023-01-29T22:17:44.849Z,86.16
2023-01-29T22:20:16.266Z,86.07
2023-01-29T22:22:45.237Z,86.20
2023-01-29T22:25:20.054Z,86.01
2023-01-29T22:27:48.745Z,86.10
2023-01-29T22:30:18.395Z,86.30
2023-01-29T22:32:47.182Z,86.27
2023-01-29T22:35:15.939Z,86.20
2023-01-29T22:37:44.883Z,86.29
2023-01-29T22:40:16.184Z,86.29
2023-01-29T22:42:44.960Z,86.23
2023-01-29T22:45:14.009Z,86.36
2023-01-29T22:47:42.668Z,86.44
2023-01-29T22:50:38.268Z,86.44
2023-01-29T22:53:07.365Z,86.39
2023-01-29T22:55:37.352Z,86.56
2023-01-29T22:58:05.981Z,86.38
2023-01-29T23:00:34.552Z,86.45
2023-01-29T23:03:03.543Z,86.65
2023-01-29T23:05:32.271Z,86.72
2023-01-29T23:08:00.846Z,86.74
2023-01-29T23:10:29.550Z,86.73
2023-01-29T23:12:59.495Z,86.74
2023-01-29T23:15:28.165Z,86.78
2023-01-29T23:17:56.925Z,86.86
2023-01-29T23:20:25.635Z,86.81
2023-01-29T23:22:54.390Z,86.84
2023-01-29T23:25:43.425Z,86.76
2023-01-29T23:28:12.449Z,86.66
2023-01-29T23:30:41.226Z,86.50
2023-01-29T23:33:12.127Z,86.51
2023-01-29T23:35:41.423Z,86.55
2023-01-29T23:38:10.077Z,86.69
2023-01-29T23:40:40.084Z,86.61
2023-01-29T23:43:08.695Z,86.59
2023-01-29T23:45:38.653Z,86.40
2023-01-29T23:48:07.893Z,86.33
2023-01-29T23:50:36.504Z,86.34
2023-01-29T23:53:05.244Z,86.33
2023-01-29T23:55:33.916Z,86.45
2023-01-29T23:58:02.522Z,86.33
